GEOFB FVMV-FAPP
Flight info
| Callsign | GEOFB |
|---|---|
| Flight time | 0h 22m |
| Altitude | 38000 |
| Route | GESIL |
| Aircraft | C750/M-SBDE3FGHRWXY/S |
Departure
| Time | 2026-05-08 12:25 |
|---|---|
| Airport | Masvingo International Airport (FVMV) |
Arrival
| Time | 2026-05-08 12:47 |
|---|---|
| Airport | Polokwane International Airport (FAPP) |
| Time | Latitude | Longitude | Altitude | Speed | Heading |
|---|---|---|---|---|---|
| 2026-05-08 12:23 | -20.05988 | 30.86067 | 3592 ft | 0 kts | 163° |
| 2026-05-08 12:24 | -20.06173 | 30.86131 | 3594 ft | 79 kts | 161° |
| 2026-05-08 12:24 | -20.07012 | 30.86414 | 3625 ft | 157 kts | 163° |
| 2026-05-08 12:24 | -20.08109 | 30.86805 | 4024 ft | 185 kts | 161° |
| 2026-05-08 12:25 | -20.09435 | 30.86861 | 4565 ft | 205 kts | 188° |
| 2026-05-08 12:25 | -20.11438 | 30.86985 | 5537 ft | 227 kts | 172° |
| 2026-05-08 12:25 | -20.14848 | 30.87329 | 6863 ft | 268 kts | 178° |
| 2026-05-08 12:25 | -20.18795 | 30.87513 | 8696 ft | 287 kts | 178° |
| 2026-05-08 12:26 | -20.22856 | 30.87757 | 10618 ft | 304 kts | 179° |
| 2026-05-08 12:26 | -20.27444 | 30.88020 | 11262 ft | 356 kts | 179° |
| 2026-05-08 12:26 | -20.32602 | 30.88328 | 12536 ft | 374 kts | 180° |
| 2026-05-08 12:26 | -20.37878 | 30.88617 | 13995 ft | 384 kts | 180° |
| 2026-05-08 12:27 | -20.43100 | 30.88222 | 15331 ft | 384 kts | 203° |
| 2026-05-08 12:27 | -20.47906 | 30.85746 | 16784 ft | 389 kts | 206° |
| 2026-05-08 12:27 | -20.53085 | 30.83824 | 18219 ft | 398 kts | 202° |
| 2026-05-08 12:27 | -20.58250 | 30.81559 | 19660 ft | 406 kts | 206° |
| 2026-05-08 12:28 | -20.63574 | 30.79327 | 21086 ft | 416 kts | 204° |
| 2026-05-08 12:28 | -20.68999 | 30.77019 | 22455 ft | 424 kts | 206° |
| 2026-05-08 12:28 | -20.74553 | 30.74655 | 23742 ft | 434 kts | 205° |
| 2026-05-08 12:28 | -20.80194 | 30.72189 | 24999 ft | 441 kts | 208° |
| 2026-05-08 12:29 | -20.85768 | 30.69531 | 26259 ft | 448 kts | 207° |
| 2026-05-08 12:29 | -20.91550 | 30.66917 | 27476 ft | 454 kts | 208° |
| 2026-05-08 12:29 | -20.97375 | 30.64191 | 28654 ft | 460 kts | 209° |
| 2026-05-08 12:29 | -21.03297 | 30.61472 | 29758 ft | 465 kts | 209° |
| 2026-05-08 12:30 | -21.09260 | 30.58700 | 30754 ft | 471 kts | 210° |
| 2026-05-08 12:30 | -21.15276 | 30.55920 | 31968 ft | 468 kts | 210° |
| 2026-05-08 12:30 | -21.21216 | 30.53162 | 33336 ft | 462 kts | 211° |
| 2026-05-08 12:30 | -21.27076 | 30.50441 | 34670 ft | 456 kts | 212° |
| 2026-05-08 12:31 | -21.32784 | 30.47790 | 35961 ft | 450 kts | 212° |
| 2026-05-08 12:31 | -21.38514 | 30.45124 | 37108 ft | 448 kts | 212° |
| 2026-05-08 12:31 | -21.44182 | 30.42494 | 38105 ft | 440 kts | 213° |
| 2026-05-08 12:31 | -21.49956 | 30.39786 | 38076 ft | 465 kts | 212° |
| 2026-05-08 12:32 | -21.56031 | 30.36975 | 38093 ft | 485 kts | 212° |
| 2026-05-08 12:32 | -21.60164 | 30.35042 | 38096 ft | 493 kts | 212° |
| 2026-05-08 12:32 | -21.72933 | 30.29079 | 38089 ft | 505 kts | 212° |
| 2026-05-08 12:33 | -21.87954 | 30.22046 | 38098 ft | 506 kts | 212° |
| 2026-05-08 12:33 | -22.00862 | 30.15991 | 38096 ft | 506 kts | 212° |
| 2026-05-08 12:34 | -22.11569 | 30.10958 | 38098 ft | 504 kts | 212° |
| 2026-05-08 12:34 | -22.24414 | 30.04911 | 38099 ft | 503 kts | 212° |
| 2026-05-08 12:35 | -22.39316 | 29.97880 | 38106 ft | 502 kts | 212° |
| 2026-05-08 12:35 | -22.52081 | 29.91843 | 38105 ft | 500 kts | 212° |
| 2026-05-08 12:36 | -22.62321 | 29.87007 | 36741 ft | 453 kts | 213° |
| 2026-05-08 12:36 | -22.67932 | 29.84325 | 35583 ft | 434 kts | 213° |
| 2026-05-08 12:36 | -22.73484 | 29.81696 | 34426 ft | 437 kts | 213° |
| 2026-05-08 12:37 | -22.79094 | 29.79030 | 33261 ft | 442 kts | 212° |
| 2026-05-08 12:37 | -22.84767 | 29.76333 | 32076 ft | 449 kts | 212° |
| 2026-05-08 12:37 | -22.90551 | 29.73578 | 30876 ft | 458 kts | 211° |
| 2026-05-08 12:37 | -22.96306 | 29.70838 | 29675 ft | 458 kts | 211° |
| 2026-05-08 12:38 | -23.02118 | 29.68067 | 28459 ft | 451 kts | 210° |
| 2026-05-08 12:38 | -23.07827 | 29.65339 | 27269 ft | 445 kts | 210° |
| 2026-05-08 12:38 | -23.13452 | 29.62653 | 26102 ft | 438 kts | 210° |
| 2026-05-08 12:38 | -23.18980 | 29.60009 | 24947 ft | 431 kts | 210° |
| 2026-05-08 12:39 | -23.24424 | 29.57402 | 23810 ft | 424 kts | 210° |
| 2026-05-08 12:39 | -23.29784 | 29.54836 | 22699 ft | 416 kts | 210° |
| 2026-05-08 12:39 | -23.35044 | 29.52310 | 21598 ft | 409 kts | 210° |
| 2026-05-08 12:39 | -23.40132 | 29.49871 | 20534 ft | 401 kts | 210° |
| 2026-05-08 12:40 | -23.45195 | 29.47438 | 19473 ft | 395 kts | 210° |
| 2026-05-08 12:40 | -23.50176 | 29.45043 | 18433 ft | 387 kts | 210° |
| 2026-05-08 12:40 | -23.55058 | 29.42694 | 17422 ft | 380 kts | 210° |
| 2026-05-08 12:40 | -23.59864 | 29.40379 | 16415 ft | 376 kts | 210° |
| 2026-05-08 12:41 | -23.64628 | 29.38083 | 15422 ft | 372 kts | 210° |
| 2026-05-08 12:41 | -23.69320 | 29.35820 | 14438 ft | 367 kts | 210° |
| 2026-05-08 12:41 | -23.73927 | 29.33599 | 13471 ft | 345 kts | 209° |
| 2026-05-08 12:41 | -23.77995 | 29.31633 | 12616 ft | 305 kts | 210° |
| 2026-05-08 12:42 | -23.81690 | 29.29840 | 11846 ft | 278 kts | 210° |
| 2026-05-08 12:42 | -23.85124 | 29.28182 | 11169 ft | 265 kts | 210° |
| 2026-05-08 12:42 | -23.88454 | 29.26570 | 10501 ft | 259 kts | 208° |
| 2026-05-08 12:42 | -23.91728 | 29.24987 | 9854 ft | 255 kts | 207° |
| 2026-05-08 12:43 | -23.95167 | 29.24344 | 9162 ft | 259 kts | 170° |
| 2026-05-08 12:43 | -23.97809 | 29.26828 | 8537 ft | 257 kts | 116° |
| 2026-05-08 12:43 | -23.98912 | 29.30526 | 7971 ft | 255 kts | 106° |
| 2026-05-08 12:43 | -23.98426 | 29.33913 | 7241 ft | 234 kts | 52° |
| 2026-05-08 12:44 | -23.95947 | 29.36201 | 6748 ft | 234 kts | 36° |
| 2026-05-08 12:44 | -23.93901 | 29.37915 | 6249 ft | 191 kts | 37° |
| 2026-05-08 12:44 | -23.92866 | 29.38800 | 6243 ft | 190 kts | 37° |
| 2026-05-08 12:44 | -23.91810 | 29.39693 | 6072 ft | 195 kts | 37° |
| 2026-05-08 12:45 | -23.90812 | 29.40563 | 5751 ft | 167 kts | 38° |
| 2026-05-08 12:45 | -23.89941 | 29.41313 | 5385 ft | 150 kts | 37° |
| 2026-05-08 12:45 | -23.89157 | 29.41966 | 4996 ft | 141 kts | 37° |
| 2026-05-08 12:45 | -23.88394 | 29.42602 | 4653 ft | 140 kts | 38° |
| 2026-05-08 12:46 | -23.87641 | 29.43233 | 4484 ft | 135 kts | 38° |
| 2026-05-08 12:46 | -23.86897 | 29.43857 | 4312 ft | 135 kts | 38° |
| 2026-05-08 12:46 | -23.86151 | 29.44486 | 4138 ft | 136 kts | 38° |
| 2026-05-08 12:46 | -23.85426 | 29.45099 | 4039 ft | 121 kts | 38° |
| 2026-05-08 12:47 | -23.84930 | 29.45518 | 4050 ft | 49 kts | 37° |
| 2026-05-08 12:47 | -23.84870 | 29.45567 | 4050 ft | 5 kts | 33° |
| 2026-05-08 12:47 | -23.84936 | 29.45513 | 4050 ft | 19 kts | 37° |
| 2026-05-08 12:47 | -23.84958 | 29.45496 | 4049 ft | 0 kts | 37° |
| 2026-05-08 12:50 | -23.84918 | 29.45530 | 4050 ft | 36 kts | 38° |
| 2026-05-08 12:51 | -23.84386 | 29.45978 | 4057 ft | 145 kts | 37° |